sensor_id;sensor_type;location;lat;lon;timestamp;P1;durP1;ratioP1;P2;durP2;ratioP2
28920;SDS011;16035;53.594;9.952;2024-01-30T00:00:36;16.47;;;8.60;;
28920;SDS011;16035;53.594;9.952;2024-01-30T00:02:36;19.30;;;7.73;;
28920;SDS011;16035;53.594;9.952;2024-01-30T00:04:37;15.63;;;8.53;;
28920;SDS011;16035;53.594;9.952;2024-01-30T00:06:37;13.30;;;7.63;;
28920;SDS011;16035;53.594;9.952;2024-01-30T00:08:38;16.87;;;7.47;;
28920;SDS011;16035;53.594;9.952;2024-01-30T00:10:38;16.33;;;7.33;;
28920;SDS011;16035;53.594;9.952;2024-01-30T00:12:38;13.10;;;7.23;;
28920;SDS011;16035;53.594;9.952;2024-01-30T00:14:40;12.00;;;7.00;;
28920;SDS011;16035;53.594;9.952;2024-01-30T00:16:41;14.52;;;6.90;;
28920;SDS011;16035;53.594;9.952;2024-01-30T00:18:42;18.33;;;7.90;;
28920;SDS011;16035;53.594;9.952;2024-01-30T00:20:42;15.07;;;6.93;;
28920;SDS011;16035;53.594;9.952;2024-01-30T00:22:42;14.13;;;7.77;;
28920;SDS011;16035;53.594;9.952;2024-01-30T00:24:43;14.70;;;7.10;;
28920;SDS011;16035;53.594;9.952;2024-01-30T00:26:43;14.10;;;7.20;;
28920;SDS011;16035;53.594;9.952;2024-01-30T00:28:44;15.47;;;7.80;;
28920;SDS011;16035;53.594;9.952;2024-01-30T00:30:44;13.67;;;6.63;;
28920;SDS011;16035;53.594;9.952;2024-01-30T00:32:44;13.53;;;7.23;;
28920;SDS011;16035;53.594;9.952;2024-01-30T00:34:45;14.85;;;7.63;;
28920;SDS011;16035;53.594;9.952;2024-01-30T00:36:45;12.27;;;6.97;;
28920;SDS011;16035;53.594;9.952;2024-01-30T00:38:46;15.00;;;7.37;;
28920;SDS011;16035;53.594;9.952;2024-01-30T00:40:46;10.50;;;6.17;;
28920;SDS011;16035;53.594;9.952;2024-01-30T00:42:46;13.63;;;6.90;;
28920;SDS011;16035;53.594;9.952;2024-01-30T00:44:47;12.47;;;6.60;;
28920;SDS011;16035;53.594;9.952;2024-01-30T00:46:47;11.63;;;6.43;;
28920;SDS011;16035;53.594;9.952;2024-01-30T00:48:47;11.47;;;7.03;;
28920;SDS011;16035;53.594;9.952;2024-01-30T00:50:48;12.73;;;7.13;;
28920;SDS011;16035;53.594;9.952;2024-01-30T00:52:48;10.97;;;6.43;;
28920;SDS011;16035;53.594;9.952;2024-01-30T00:54:48;12.90;;;7.10;;
28920;SDS011;16035;53.594;9.952;2024-01-30T00:56:49;9.63;;;5.70;;
28920;SDS011;16035;53.594;9.952;2024-01-30T00:58:49;10.57;;;6.57;;
28920;SDS011;16035;53.594;9.952;2024-01-30T01:00:49;19.17;;;6.57;;
28920;SDS011;16035;53.594;9.952;2024-01-30T01:02:50;11.50;;;7.20;;
28920;SDS011;16035;53.594;9.952;2024-01-30T01:04:50;10.43;;;6.43;;
28920;SDS011;16035;53.594;9.952;2024-01-30T01:06:50;9.67;;;6.73;;
28920;SDS011;16035;53.594;9.952;2024-01-30T01:08:51;9.43;;;6.30;;
28920;SDS011;16035;53.594;9.952;2024-01-30T01:10:51;11.97;;;6.77;;
28920;SDS011;16035;53.594;9.952;2024-01-30T01:12:51;19.53;;;11.13;;
28920;SDS011;16035;53.594;9.952;2024-01-30T01:14:52;20.23;;;9.77;;
28920;SDS011;16035;53.594;9.952;2024-01-30T01:16:52;25.77;;;12.63;;
28920;SDS011;16035;53.594;9.952;2024-01-30T01:18:52;19.90;;;9.90;;
28920;SDS011;16035;53.594;9.952;2024-01-30T01:20:52;25.43;;;14.60;;
28920;SDS011;16035;53.594;9.952;2024-01-30T01:22:53;18.50;;;12.77;;
28920;SDS011;16035;53.594;9.952;2024-01-30T01:24:54;17.95;;;9.25;;
28920;SDS011;16035;53.594;9.952;2024-01-30T01:26:54;19.63;;;10.67;;
28920;SDS011;16035;53.594;9.952;2024-01-30T01:28:55;18.42;;;10.50;;
28920;SDS011;16035;53.594;9.952;2024-01-30T01:30:56;16.67;;;9.97;;
28920;SDS011;16035;53.594;9.952;2024-01-30T01:32:59;17.13;;;9.73;;
28920;SDS011;16035;53.594;9.952;2024-01-30T01:35:02;13.07;;;8.48;;
28920;SDS011;16035;53.594;9.952;2024-01-30T01:37:03;14.38;;;7.70;;
28920;SDS011;16035;53.594;9.952;2024-01-30T01:39:04;12.37;;;7.63;;
28920;SDS011;16035;53.594;9.952;2024-01-30T01:41:04;14.67;;;7.87;;
28920;SDS011;16035;53.594;9.952;2024-01-30T01:43:05;10.77;;;6.70;;
28920;SDS011;16035;53.594;9.952;2024-01-30T01:45:06;10.33;;;7.17;;
28920;SDS011;16035;53.594;9.952;2024-01-30T01:47:07;13.50;;;7.30;;
28920;SDS011;16035;53.594;9.952;2024-01-30T01:49:07;13.67;;;7.17;;
28920;SDS011;16035;53.594;9.952;2024-01-30T01:51:08;11.63;;;6.10;;
28920;SDS011;16035;53.594;9.952;2024-01-30T01:53:09;13.15;;;6.00;;
28920;SDS011;16035;53.594;9.952;2024-01-30T01:55:10;12.38;;;6.18;;
28920;SDS011;16035;53.594;9.952;2024-01-30T01:57:12;11.70;;;5.57;;
28920;SDS011;16035;53.594;9.952;2024-01-30T01:59:12;13.73;;;6.10;;
28920;SDS011;16035;53.594;9.952;2024-01-30T02:01:13;12.67;;;5.97;;
28920;SDS011;16035;53.594;9.952;2024-01-30T02:03:14;10.52;;;6.68;;
28920;SDS011;16035;53.594;9.952;2024-01-30T02:05:18;9.95;;;6.45;;
28920;SDS011;16035;53.594;9.952;2024-01-30T02:07:18;9.07;;;5.70;;
28920;SDS011;16035;53.594;9.952;2024-01-30T02:09:19;11.43;;;6.37;;
28920;SDS011;16035;53.594;9.952;2024-01-30T02:11:22;11.43;;;5.63;;
28920;SDS011;16035;53.594;9.952;2024-01-30T02:13:23;8.57;;;5.13;;
28920;SDS011;16035;53.594;9.952;2024-01-30T02:15:24;11.73;;;6.80;;
28920;SDS011;16035;53.594;9.952;2024-01-30T02:17:24;8.77;;;5.67;;
28920;SDS011;16035;53.594;9.952;2024-01-30T02:19:24;6.27;;;3.87;;
28920;SDS011;16035;53.594;9.952;2024-01-30T02:21:25;7.90;;;5.33;;
28920;SDS011;16035;53.594;9.952;2024-01-30T02:23:25;12.40;;;5.83;;
28920;SDS011;16035;53.594;9.952;2024-01-30T02:25:38;9.00;;;5.77;;
28920;SDS011;16035;53.594;9.952;2024-01-30T02:27:44;10.27;;;6.30;;
28920;SDS011;16035;53.594;9.952;2024-01-30T02:29:45;7.10;;;5.33;;
28920;SDS011;16035;53.594;9.952;2024-01-30T02:31:45;9.53;;;5.50;;
28920;SDS011;16035;53.594;9.952;2024-01-30T02:33:46;12.27;;;5.97;;
28920;SDS011;16035;53.594;9.952;2024-01-30T02:35:46;8.83;;;5.33;;
28920;SDS011;16035;53.594;9.952;2024-01-30T02:37:46;8.20;;;5.07;;
28920;SDS011;16035;53.594;9.952;2024-01-30T02:39:46;14.13;;;5.57;;
28920;SDS011;16035;53.594;9.952;2024-01-30T02:41:47;9.83;;;5.33;;
28920;SDS011;16035;53.594;9.952;2024-01-30T02:43:47;5.93;;;3.73;;
28920;SDS011;16035;53.594;9.952;2024-01-30T02:45:47;9.40;;;5.43;;
28920;SDS011;16035;53.594;9.952;2024-01-30T02:47:48;8.30;;;5.37;;
28920;SDS011;16035;53.594;9.952;2024-01-30T02:49:48;10.00;;;5.57;;
28920;SDS011;16035;53.594;9.952;2024-01-30T02:51:48;7.70;;;5.33;;
28920;SDS011;16035;53.594;9.952;2024-01-30T02:53:49;7.00;;;4.53;;
28920;SDS011;16035;53.594;9.952;2024-01-30T02:55:49;7.43;;;5.43;;
28920;SDS011;16035;53.594;9.952;2024-01-30T02:57:49;10.10;;;5.57;;
28920;SDS011;16035;53.594;9.952;2024-01-30T02:59:50;8.63;;;5.27;;
28920;SDS011;16035;53.594;9.952;2024-01-30T03:01:50;9.67;;;5.03;;
28920;SDS011;16035;53.594;9.952;2024-01-30T03:03:50;14.07;;;7.63;;
28920;SDS011;16035;53.594;9.952;2024-01-30T03:05:51;10.10;;;5.07;;
28920;SDS011;16035;53.594;9.952;2024-01-30T03:07:51;8.40;;;5.27;;
28920;SDS011;16035;53.594;9.952;2024-01-30T03:09:51;6.47;;;4.13;;
28920;SDS011;16035;53.594;9.952;2024-01-30T03:11:52;9.23;;;5.20;;
28920;SDS011;16035;53.594;9.952;2024-01-30T03:13:52;7.77;;;5.10;;
28920;SDS011;16035;53.594;9.952;2024-01-30T03:15:53;9.53;;;5.57;;
28920;SDS011;16035;53.594;9.952;2024-01-30T03:17:53;9.07;;;5.27;;
28920;SDS011;16035;53.594;9.952;2024-01-30T03:19:54;6.90;;;4.40;;
28920;SDS011;16035;53.594;9.952;2024-01-30T03:21:54;10.20;;;5.40;;
28920;SDS011;16035;53.594;9.952;2024-01-30T03:23:54;10.33;;;5.40;;
28920;SDS011;16035;53.594;9.952;2024-01-30T03:25:54;10.67;;;5.27;;
28920;SDS011;16035;53.594;9.952;2024-01-30T03:27:55;11.47;;;5.50;;
28920;SDS011;16035;53.594;9.952;2024-01-30T03:29:55;6.43;;;4.07;;
28920;SDS011;16035;53.594;9.952;2024-01-30T03:31:55;8.33;;;4.40;;
28920;SDS011;16035;53.594;9.952;2024-01-30T03:33:56;8.20;;;5.03;;
28920;SDS011;16035;53.594;9.952;2024-01-30T03:35:56;9.67;;;4.97;;
28920;SDS011;16035;53.594;9.952;2024-01-30T03:37:56;6.60;;;3.73;;
28920;SDS011;16035;53.594;9.952;2024-01-30T03:39:57;10.80;;;5.13;;
28920;SDS011;16035;53.594;9.952;2024-01-30T03:41:57;8.60;;;5.70;;
28920;SDS011;16035;53.594;9.952;2024-01-30T03:43:57;12.10;;;5.37;;
28920;SDS011;16035;53.594;9.952;2024-01-30T03:45:58;5.93;;;3.77;;
28920;SDS011;16035;53.594;9.952;2024-01-30T03:47:59;11.13;;;4.90;;
28920;SDS011;16035;53.594;9.952;2024-01-30T03:49:59;10.40;;;5.70;;
28920;SDS011;16035;53.594;9.952;2024-01-30T03:52:00;8.37;;;5.13;;
28920;SDS011;16035;53.594;9.952;2024-01-30T03:54:00;6.43;;;3.33;;
28920;SDS011;16035;53.594;9.952;2024-01-30T03:56:00;11.27;;;5.13;;
28920;SDS011;16035;53.594;9.952;2024-01-30T03:58:01;7.43;;;4.47;;
28920;SDS011;16035;53.594;9.952;2024-01-30T04:00:01;8.60;;;5.33;;
28920;SDS011;16035;53.594;9.952;2024-01-30T04:02:04;7.97;;;4.63;;
28920;SDS011;16035;53.594;9.952;2024-01-30T04:04:05;10.07;;;5.10;;
28920;SDS011;16035;53.594;9.952;2024-01-30T04:06:05;8.43;;;5.40;;
28920;SDS011;16035;53.594;9.952;2024-01-30T04:08:06;8.53;;;4.90;;
28920;SDS011;16035;53.594;9.952;2024-01-30T04:10:06;7.00;;;5.03;;
28920;SDS011;16035;53.594;9.952;2024-01-30T04:12:07;10.63;;;4.70;;
28920;SDS011;16035;53.594;9.952;2024-01-30T04:14:08;9.80;;;4.87;;
28920;SDS011;16035;53.594;9.952;2024-01-30T04:16:08;9.25;;;4.70;;
28920;SDS011;16035;53.594;9.952;2024-01-30T04:18:19;7.38;;;4.40;;
28920;SDS011;16035;53.594;9.952;2024-01-30T04:20:19;7.77;;;5.77;;
28920;SDS011;16035;53.594;9.952;2024-01-30T04:22:20;7.53;;;4.83;;
28920;SDS011;16035;53.594;9.952;2024-01-30T04:24:20;11.70;;;5.50;;
28920;SDS011;16035;53.594;9.952;2024-01-30T04:26:20;9.30;;;5.67;;
28920;SDS011;16035;53.594;9.952;2024-01-30T04:28:21;8.23;;;4.93;;
28920;SDS011;16035;53.594;9.952;2024-01-30T04:30:21;8.33;;;3.90;;
28920;SDS011;16035;53.594;9.952;2024-01-30T04:32:21;9.80;;;5.47;;
28920;SDS011;16035;53.594;9.952;2024-01-30T04:34:22;12.27;;;5.23;;
28920;SDS011;16035;53.594;9.952;2024-01-30T04:36:22;8.60;;;4.57;;
28920;SDS011;16035;53.594;9.952;2024-01-30T04:38:22;9.10;;;5.57;;
28920;SDS011;16035;53.594;9.952;2024-01-30T04:40:22;6.40;;;4.87;;
28920;SDS011;16035;53.594;9.952;2024-01-30T04:42:23;9.53;;;5.47;;
28920;SDS011;16035;53.594;9.952;2024-01-30T04:44:24;10.27;;;5.30;;
28920;SDS011;16035;53.594;9.952;2024-01-30T04:46:24;10.77;;;6.00;;
28920;SDS011;16035;53.594;9.952;2024-01-30T04:48:24;6.53;;;4.23;;
28920;SDS011;16035;53.594;9.952;2024-01-30T04:50:24;10.53;;;4.73;;
28920;SDS011;16035;53.594;9.952;2024-01-30T04:52:26;10.15;;;5.50;;
28920;SDS011;16035;53.594;9.952;2024-01-30T04:54:26;9.87;;;5.37;;
28920;SDS011;16035;53.594;9.952;2024-01-30T04:56:27;11.70;;;5.80;;
28920;SDS011;16035;53.594;9.952;2024-01-30T04:58:27;6.87;;;4.80;;
28920;SDS011;16035;53.594;9.952;2024-01-30T05:00:27;9.07;;;5.27;;
28920;SDS011;16035;53.594;9.952;2024-01-30T05:02:28;7.13;;;5.13;;
28920;SDS011;16035;53.594;9.952;2024-01-30T05:04:28;7.90;;;5.03;;
28920;SDS011;16035;53.594;9.952;2024-01-30T05:06:28;10.47;;;5.57;;
28920;SDS011;16035;53.594;9.952;2024-01-30T05:08:29;8.88;;;5.28;;
28920;SDS011;16035;53.594;9.952;2024-01-30T05:10:30;9.03;;;5.73;;
28920;SDS011;16035;53.594;9.952;2024-01-30T05:12:30;12.80;;;5.57;;
28920;SDS011;16035;53.594;9.952;2024-01-30T05:14:30;7.30;;;5.00;;
28920;SDS011;16035;53.594;9.952;2024-01-30T05:16:31;13.93;;;5.83;;
28920;SDS011;16035;53.594;9.952;2024-01-30T05:18:31;10.70;;;5.93;;
28920;SDS011;16035;53.594;9.952;2024-01-30T05:20:32;11.40;;;7.17;;
28920;SDS011;16035;53.594;9.952;2024-01-30T05:22:32;12.33;;;6.67;;
28920;SDS011;16035;53.594;9.952;2024-01-30T05:24:33;11.97;;;6.17;;
28920;SDS011;16035;53.594;9.952;2024-01-30T05:26:33;10.20;;;6.20;;
28920;SDS011;16035;53.594;9.952;2024-01-30T05:28:33;9.47;;;5.60;;
28920;SDS011;16035;53.594;9.952;2024-01-30T05:30:33;8.27;;;5.27;;
28920;SDS011;16035;53.594;9.952;2024-01-30T05:32:34;14.73;;;6.50;;
28920;SDS011;16035;53.594;9.952;2024-01-30T05:34:35;9.83;;;6.00;;
28920;SDS011;16035;53.594;9.952;2024-01-30T05:36:35;11.70;;;5.40;;
28920;SDS011;16035;53.594;9.952;2024-01-30T05:38:36;9.63;;;5.87;;
28920;SDS011;16035;53.594;9.952;2024-01-30T05:40:39;11.48;;;6.03;;
28920;SDS011;16035;53.594;9.952;2024-01-30T05:42:39;11.67;;;6.23;;
28920;SDS011;16035;53.594;9.952;2024-01-30T05:44:40;10.57;;;6.23;;
28920;SDS011;16035;53.594;9.952;2024-01-30T05:46:40;9.10;;;4.03;;
28920;SDS011;16035;53.594;9.952;2024-01-30T05:48:40;7.47;;;4.50;;
28920;SDS011;16035;53.594;9.952;2024-01-30T05:50:41;10.73;;;5.90;;
28920;SDS011;16035;53.594;9.952;2024-01-30T05:52:41;6.17;;;4.37;;
28920;SDS011;16035;53.594;9.952;2024-01-30T05:54:41;7.77;;;5.60;;
28920;SDS011;16035;53.594;9.952;2024-01-30T05:56:42;10.77;;;6.50;;
28920;SDS011;16035;53.594;9.952;2024-01-30T05:58:42;8.07;;;5.47;;
28920;SDS011;16035;53.594;9.952;2024-01-30T06:00:43;13.90;;;6.53;;
28920;SDS011;16035;53.594;9.952;2024-01-30T06:02:43;13.27;;;6.57;;
28920;SDS011;16035;53.594;9.952;2024-01-30T06:04:44;9.70;;;5.97;;
28920;SDS011;16035;53.594;9.952;2024-01-30T06:06:44;11.50;;;6.43;;
28920;SDS011;16035;53.594;9.952;2024-01-30T06:08:44;11.07;;;6.80;;
28920;SDS011;16035;53.594;9.952;2024-01-30T06:10:45;12.13;;;7.13;;
28920;SDS011;16035;53.594;9.952;2024-01-30T06:12:45;10.67;;;5.63;;
28920;SDS011;16035;53.594;9.952;2024-01-30T06:14:45;8.47;;;4.37;;
28920;SDS011;16035;53.594;9.952;2024-01-30T06:16:46;10.80;;;6.90;;
28920;SDS011;16035;53.594;9.952;2024-01-30T06:18:46;7.63;;;4.57;;
28920;SDS011;16035;53.594;9.952;2024-01-30T06:20:47;11.98;;;6.00;;
28920;SDS011;16035;53.594;9.952;2024-01-30T06:22:48;13.23;;;6.27;;
28920;SDS011;16035;53.594;9.952;2024-01-30T06:24:48;12.27;;;6.53;;
28920;SDS011;16035;53.594;9.952;2024-01-30T06:26:48;13.67;;;6.67;;
28920;SDS011;16035;53.594;9.952;2024-01-30T06:28:49;13.20;;;7.63;;
28920;SDS011;16035;53.594;9.952;2024-01-30T06:30:49;10.47;;;6.53;;
28920;SDS011;16035;53.594;9.952;2024-01-30T06:32:50;13.18;;;6.53;;
28920;SDS011;16035;53.594;9.952;2024-01-30T06:34:50;14.10;;;7.30;;
28920;SDS011;16035;53.594;9.952;2024-01-30T06:36:50;10.63;;;7.37;;
28920;SDS011;16035;53.594;9.952;2024-01-30T06:38:51;8.57;;;5.77;;
28920;SDS011;16035;53.594;9.952;2024-01-30T06:40:51;12.17;;;7.60;;
28920;SDS011;16035;53.594;9.952;2024-01-30T06:42:51;10.27;;;6.43;;
28920;SDS011;16035;53.594;9.952;2024-01-30T06:44:52;15.90;;;7.23;;
28920;SDS011;16035;53.594;9.952;2024-01-30T06:46:52;13.43;;;7.17;;
28920;SDS011;16035;53.594;9.952;2024-01-30T06:48:52;21.80;;;11.13;;
28920;SDS011;16035;53.594;9.952;2024-01-30T06:50:53;17.27;;;10.57;;
28920;SDS011;16035;53.594;9.952;2024-01-30T06:52:53;11.43;;;6.30;;
28920;SDS011;16035;53.594;9.952;2024-01-30T06:54:54;14.00;;;7.57;;
28920;SDS011;16035;53.594;9.952;2024-01-30T06:56:54;13.37;;;8.00;;
28920;SDS011;16035;53.594;9.952;2024-01-30T06:58:55;13.17;;;7.03;;
28920;SDS011;16035;53.594;9.952;2024-01-30T07:00:55;13.53;;;7.73;;
28920;SDS011;16035;53.594;9.952;2024-01-30T07:02:56;14.43;;;6.22;;
28920;SDS011;16035;53.594;9.952;2024-01-30T07:04:56;13.33;;;7.30;;
28920;SDS011;16035;53.594;9.952;2024-01-30T07:06:57;11.57;;;6.90;;
28920;SDS011;16035;53.594;9.952;2024-01-30T07:08:57;12.20;;;8.33;;
28920;SDS011;16035;53.594;9.952;2024-01-30T07:10:57;9.93;;;6.67;;
28920;SDS011;16035;53.594;9.952;2024-01-30T07:12:58;10.03;;;6.80;;
28920;SDS011;16035;53.594;9.952;2024-01-30T07:14:58;19.30;;;7.27;;
28920;SDS011;16035;53.594;9.952;2024-01-30T07:16:59;11.80;;;7.18;;
28920;SDS011;16035;53.594;9.952;2024-01-30T07:19:00;16.57;;;8.87;;
28920;SDS011;16035;53.594;9.952;2024-01-30T07:21:00;12.03;;;7.93;;
28920;SDS011;16035;53.594;9.952;2024-01-30T07:23:00;12.97;;;7.20;;
28920;SDS011;16035;53.594;9.952;2024-01-30T07:25:04;16.58;;;7.93;;
28920;SDS011;16035;53.594;9.952;2024-01-30T07:27:05;19.52;;;7.65;;
28920;SDS011;16035;53.594;9.952;2024-01-30T07:29:05;15.33;;;6.27;;
28920;SDS011;16035;53.594;9.952;2024-01-30T07:31:06;15.17;;;7.23;;
28920;SDS011;16035;53.594;9.952;2024-01-30T07:33:09;11.38;;;6.78;;
28920;SDS011;16035;53.594;9.952;2024-01-30T07:35:10;11.10;;;6.77;;
28920;SDS011;16035;53.594;9.952;2024-01-30T07:37:11;10.52;;;7.00;;
28920;SDS011;16035;53.594;9.952;2024-01-30T07:39:15;11.57;;;6.72;;
28920;SDS011;16035;53.594;9.952;2024-01-30T07:41:16;13.80;;;7.00;;
28920;SDS011;16035;53.594;9.952;2024-01-30T07:43:16;13.20;;;7.53;;
28920;SDS011;16035;53.594;9.952;2024-01-30T07:45:16;16.40;;;8.53;;
28920;SDS011;16035;53.594;9.952;2024-01-30T07:47:22;12.48;;;6.75;;
28920;SDS011;16035;53.594;9.952;2024-01-30T07:49:22;11.90;;;8.27;;
28920;SDS011;16035;53.594;9.952;2024-01-30T07:51:23;12.10;;;7.23;;
28920;SDS011;16035;53.594;9.952;2024-01-30T07:53:24;14.82;;;7.97;;
28920;SDS011;16035;53.594;9.952;2024-01-30T07:55:39;10.27;;;6.83;;
28920;SDS011;16035;53.594;9.952;2024-01-30T07:57:46;18.77;;;7.70;;
28920;SDS011;16035;53.594;9.952;2024-01-30T07:59:46;17.50;;;7.93;;
28920;SDS011;16035;53.594;9.952;2024-01-30T08:01:47;13.37;;;7.80;;
28920;SDS011;16035;53.594;9.952;2024-01-30T08:03:47;17.63;;;8.30;;
28920;SDS011;16035;53.594;9.952;2024-01-30T08:05:47;13.90;;;7.17;;
28920;SDS011;16035;53.594;9.952;2024-01-30T08:07:48;14.60;;;8.23;;
28920;SDS011;16035;53.594;9.952;2024-01-30T08:09:48;17.80;;;8.10;;
28920;SDS011;16035;53.594;9.952;2024-01-30T08:11:49;18.73;;;8.00;;
28920;SDS011;16035;53.594;9.952;2024-01-30T08:13:49;14.90;;;8.60;;
28920;SDS011;16035;53.594;9.952;2024-01-30T08:15:49;16.73;;;8.07;;
28920;SDS011;16035;53.594;9.952;2024-01-30T08:17:50;12.73;;;7.90;;
28920;SDS011;16035;53.594;9.952;2024-01-30T08:19:55;13.15;;;8.32;;
28920;SDS011;16035;53.594;9.952;2024-01-30T08:21:56;14.87;;;8.93;;
28920;SDS011;16035;53.594;9.952;2024-01-30T08:23:56;13.07;;;7.90;;
28920;SDS011;16035;53.594;9.952;2024-01-30T08:25:57;12.13;;;7.33;;
28920;SDS011;16035;53.594;9.952;2024-01-30T08:27:57;18.50;;;8.13;;
28920;SDS011;16035;53.594;9.952;2024-01-30T08:29:58;14.40;;;8.73;;
28920;SDS011;16035;53.594;9.952;2024-01-30T08:31:58;17.30;;;8.73;;
28920;SDS011;16035;53.594;9.952;2024-01-30T08:33:59;13.93;;;8.60;;
28920;SDS011;16035;53.594;9.952;2024-01-30T08:35:59;16.40;;;8.17;;
28920;SDS011;16035;53.594;9.952;2024-01-30T08:38:00;15.13;;;8.30;;
28920;SDS011;16035;53.594;9.952;2024-01-30T08:40:00;17.37;;;9.03;;
28920;SDS011;16035;53.594;9.952;2024-01-30T08:42:02;13.20;;;8.10;;
28920;SDS011;16035;53.594;9.952;2024-01-30T08:44:02;19.77;;;8.87;;
28920;SDS011;16035;53.594;9.952;2024-01-30T08:46:04;14.23;;;8.65;;
28920;SDS011;16035;53.594;9.952;2024-01-30T08:48:04;15.83;;;8.40;;
28920;SDS011;16035;53.594;9.952;2024-01-30T08:50:06;14.80;;;8.68;;
28920;SDS011;16035;53.594;9.952;2024-01-30T08:52:06;19.65;;;7.80;;
28920;SDS011;16035;53.594;9.952;2024-01-30T08:54:07;14.50;;;8.23;;
28920;SDS011;16035;53.594;9.952;2024-01-30T08:56:07;11.90;;;7.37;;
28920;SDS011;16035;53.594;9.952;2024-01-30T08:58:07;17.97;;;7.53;;
28920;SDS011;16035;53.594;9.952;2024-01-30T09:00:08;14.40;;;8.37;;
28920;SDS011;16035;53.594;9.952;2024-01-30T09:02:10;13.70;;;8.18;;
28920;SDS011;16035;53.594;9.952;2024-01-30T09:04:12;16.38;;;8.45;;
28920;SDS011;16035;53.594;9.952;2024-01-30T09:06:12;12.17;;;7.60;;
28920;SDS011;16035;53.594;9.952;2024-01-30T09:08:13;14.93;;;7.87;;
28920;SDS011;16035;53.594;9.952;2024-01-30T09:10:13;14.43;;;8.27;;
28920;SDS011;16035;53.594;9.952;2024-01-30T09:12:14;15.50;;;8.40;;
28920;SDS011;16035;53.594;9.952;2024-01-30T09:14:14;14.17;;;9.03;;
28920;SDS011;16035;53.594;9.952;2024-01-30T09:16:15;10.57;;;7.37;;
28920;SDS011;16035;53.594;9.952;2024-01-30T09:18:16;12.63;;;7.85;;
28920;SDS011;16035;53.594;9.952;2024-01-30T09:20:16;16.13;;;8.67;;
28920;SDS011;16035;53.594;9.952;2024-01-30T09:22:16;13.17;;;7.70;;
28920;SDS011;16035;53.594;9.952;2024-01-30T09:24:17;18.33;;;9.00;;
28920;SDS011;16035;53.594;9.952;2024-01-30T09:26:17;15.13;;;7.67;;
28920;SDS011;16035;53.594;9.952;2024-01-30T09:28:17;18.10;;;8.83;;
28920;SDS011;16035;53.594;9.952;2024-01-30T09:30:18;13.47;;;8.70;;
28920;SDS011;16035;53.594;9.952;2024-01-30T09:32:18;14.00;;;8.00;;
28920;SDS011;16035;53.594;9.952;2024-01-30T09:34:18;12.63;;;7.30;;
28920;SDS011;16035;53.594;9.952;2024-01-30T09:36:19;12.43;;;8.20;;
28920;SDS011;16035;53.594;9.952;2024-01-30T09:38:20;14.25;;;8.73;;
28920;SDS011;16035;53.594;9.952;2024-01-30T09:40:21;12.37;;;8.10;;
28920;SDS011;16035;53.594;9.952;2024-01-30T09:42:34;9.63;;;6.00;;
28920;SDS011;16035;53.594;9.952;2024-01-30T09:44:37;17.23;;;8.38;;
28920;SDS011;16035;53.594;9.952;2024-01-30T09:46:38;14.43;;;8.53;;
28920;SDS011;16035;53.594;9.952;2024-01-30T09:48:40;19.50;;;8.68;;
28920;SDS011;16035;53.594;9.952;2024-01-30T09:50:42;10.57;;;7.35;;
28920;SDS011;16035;53.594;9.952;2024-01-30T09:52:43;13.00;;;8.00;;
28920;SDS011;16035;53.594;9.952;2024-01-30T09:54:44;14.43;;;8.75;;
28920;SDS011;16035;53.594;9.952;2024-01-30T09:56:45;12.18;;;8.95;;
28920;SDS011;16035;53.594;9.952;2024-01-30T09:58:47;12.60;;;8.65;;
28920;SDS011;16035;53.594;9.952;2024-01-30T10:00:48;16.60;;;8.95;;
28920;SDS011;16035;53.594;9.952;2024-01-30T10:02:49;15.30;;;9.03;;
28920;SDS011;16035;53.594;9.952;2024-01-30T10:04:50;16.57;;;9.47;;
28920;SDS011;16035;53.594;9.952;2024-01-30T10:06:51;14.48;;;8.98;;
28920;SDS011;16035;53.594;9.952;2024-01-30T10:08:52;14.27;;;8.80;;
28920;SDS011;16035;53.594;9.952;2024-01-30T10:10:52;15.33;;;9.27;;
28920;SDS011;16035;53.594;9.952;2024-01-30T10:12:52;16.30;;;9.00;;
28920;SDS011;16035;53.594;9.952;2024-01-30T10:14:55;13.85;;;9.60;;
28920;SDS011;16035;53.594;9.952;2024-01-30T10:16:57;14.13;;;8.38;;
28920;SDS011;16035;53.594;9.952;2024-01-30T10:18:57;13.27;;;8.43;;
28920;SDS011;16035;53.594;9.952;2024-01-30T10:20:58;13.20;;;8.37;;
28920;SDS011;16035;53.594;9.952;2024-01-30T10:22:59;20.48;;;10.23;;
28920;SDS011;16035;53.594;9.952;2024-01-30T10:25:00;11.80;;;8.50;;
28920;SDS011;16035;53.594;9.952;2024-01-30T10:27:00;18.10;;;9.35;;
28920;SDS011;16035;53.594;9.952;2024-01-30T10:29:01;15.40;;;9.07;;
28920;SDS011;16035;53.594;9.952;2024-01-30T10:31:02;14.95;;;8.50;;
28920;SDS011;16035;53.594;9.952;2024-01-30T10:33:05;13.63;;;9.07;;
28920;SDS011;16035;53.594;9.952;2024-01-30T10:35:06;18.03;;;9.03;;
28920;SDS011;16035;53.594;9.952;2024-01-30T10:37:07;13.00;;;8.33;;
28920;SDS011;16035;53.594;9.952;2024-01-30T10:39:17;15.68;;;9.25;;
28920;SDS011;16035;53.594;9.952;2024-01-30T10:41:18;12.55;;;8.88;;
28920;SDS011;16035;53.594;9.952;2024-01-30T10:43:32;17.17;;;9.60;;
28920;SDS011;16035;53.594;9.952;2024-01-30T10:45:35;12.82;;;8.55;;
28920;SDS011;16035;53.594;9.952;2024-01-30T10:47:40;13.90;;;8.98;;
28920;SDS011;16035;53.594;9.952;2024-01-30T10:49:43;14.48;;;8.82;;
28920;SDS011;16035;53.594;9.952;2024-01-30T10:51:43;18.63;;;9.33;;
28920;SDS011;16035;53.594;9.952;2024-01-30T10:53:46;17.92;;;9.18;;
28920;SDS011;16035;53.594;9.952;2024-01-30T10:55:46;14.70;;;8.30;;
28920;SDS011;16035;53.594;9.952;2024-01-30T10:57:48;12.60;;;8.82;;
28920;SDS011;16035;53.594;9.952;2024-01-30T10:59:49;16.25;;;9.50;;
28920;SDS011;16035;53.594;9.952;2024-01-30T11:01:58;15.10;;;8.52;;
28920;SDS011;16035;53.594;9.952;2024-01-30T11:03:59;17.05;;;9.63;;
28920;SDS011;16035;53.594;9.952;2024-01-30T11:06:00;15.27;;;9.80;;
28920;SDS011;16035;53.594;9.952;2024-01-30T11:08:11;15.10;;;9.40;;
28920;SDS011;16035;53.594;9.952;2024-01-30T11:10:12;15.60;;;9.50;;
28920;SDS011;16035;53.594;9.952;2024-01-30T11:12:15;19.45;;;9.52;;
28920;SDS011;16035;53.594;9.952;2024-01-30T11:14:15;20.77;;;9.03;;
28920;SDS011;16035;53.594;9.952;2024-01-30T11:16:15;16.10;;;9.60;;
28920;SDS011;16035;53.594;9.952;2024-01-30T11:18:25;14.93;;;9.23;;
28920;SDS011;16035;53.594;9.952;2024-01-30T11:20:31;12.15;;;8.60;;
28920;SDS011;16035;53.594;9.952;2024-01-30T11:22:32;20.70;;;9.93;;
28920;SDS011;16035;53.594;9.952;2024-01-30T11:24:39;14.05;;;8.82;;
28920;SDS011;16035;53.594;9.952;2024-01-30T11:26:42;16.63;;;8.88;;
28920;SDS011;16035;53.594;9.952;2024-01-30T11:28:42;16.85;;;9.70;;
28920;SDS011;16035;53.594;9.952;2024-01-30T11:30:43;19.67;;;9.90;;
28920;SDS011;16035;53.594;9.952;2024-01-30T11:32:43;17.00;;;9.10;;
28920;SDS011;16035;53.594;9.952;2024-01-30T11:34:43;12.83;;;8.43;;
28920;SDS011;16035;53.594;9.952;2024-01-30T11:36:44;23.63;;;10.20;;
28920;SDS011;16035;53.594;9.952;2024-01-30T11:38:48;22.88;;;11.00;;
28920;SDS011;16035;53.594;9.952;2024-01-30T11:40:48;16.27;;;9.00;;
28920;SDS011;16035;53.594;9.952;2024-01-30T11:42:51;21.02;;;9.98;;
28920;SDS011;16035;53.594;9.952;2024-01-30T11:44:52;16.77;;;8.80;;
28920;SDS011;16035;53.594;9.952;2024-01-30T11:46:52;20.23;;;9.50;;
28920;SDS011;16035;53.594;9.952;2024-01-30T11:48:52;18.23;;;9.27;;
28920;SDS011;16035;53.594;9.952;2024-01-30T11:50:54;22.30;;;9.73;;
28920;SDS011;16035;53.594;9.952;2024-01-30T11:52:54;20.40;;;9.47;;
28920;SDS011;16035;53.594;9.952;2024-01-30T11:54:55;17.93;;;9.17;;
28920;SDS011;16035;53.594;9.952;2024-01-30T11:56:55;13.10;;;8.67;;
28920;SDS011;16035;53.594;9.952;2024-01-30T11:58:55;14.20;;;9.03;;
28920;SDS011;16035;53.594;9.952;2024-01-30T12:00:56;15.63;;;8.23;;